sensor_id;sensor_type;location;lat;lon;timestamp;temperature;humidity
14053;DHT22;7101;51.600;7.310;2022-11-15T00:00:51;10.00;10.00
14053;DHT22;7101;51.600;7.310;2022-11-15T00:03:21;10.00;11.00
14053;DHT22;7101;51.600;7.310;2022-11-15T00:05:49;10.10;15.30
14053;DHT22;7101;51.600;7.310;2022-11-15T00:08:16;10.20;19.00
14053;DHT22;7101;51.600;7.310;2022-11-15T00:10:43;10.20;19.20
14053;DHT22;7101;51.600;7.310;2022-11-15T00:13:12;10.30;17.30
14053;DHT22;7101;51.600;7.310;2022-11-15T00:15:40;10.30;17.10
14053;DHT22;7101;51.600;7.310;2022-11-15T00:18:12;10.30;22.80
14053;DHT22;7101;51.600;7.310;2022-11-15T00:20:40;10.30;26.40
14053;DHT22;7101;51.600;7.310;2022-11-15T00:23:08;10.30;27.40
14053;DHT22;7101;51.600;7.310;2022-11-15T00:25:35;10.40;38.60
14053;DHT22;7101;51.600;7.310;2022-11-15T00:28:02;10.40;37.80
14053;DHT22;7101;51.600;7.310;2022-11-15T00:30:30;10.40;42.80
14053;DHT22;7101;51.600;7.310;2022-11-15T00:33:01;10.50;44.60
14053;DHT22;7101;51.600;7.310;2022-11-15T00:35:30;10.50;41.50
14053;DHT22;7101;51.600;7.310;2022-11-15T00:37:57;10.60;45.60
14053;DHT22;7101;51.600;7.310;2022-11-15T00:40:24;10.60;47.30
14053;DHT22;7101;51.600;7.310;2022-11-15T00:42:51;10.70;50.50
14053;DHT22;7101;51.600;7.310;2022-11-15T00:45:17;10.80;46.70
14053;DHT22;7101;51.600;7.310;2022-11-15T00:47:47;10.80;43.00
14053;DHT22;7101;51.600;7.310;2022-11-15T00:50:14;10.80;50.60
14053;DHT22;7101;51.600;7.310;2022-11-15T00:52:41;10.90;49.60
14053;DHT22;7101;51.600;7.310;2022-11-15T00:55:09;10.90;50.60
14053;DHT22;7101;51.600;7.310;2022-11-15T00:57:39;11.00;53.20
14053;DHT22;7101;51.600;7.310;2022-11-15T01:00:07;11.00;47.30
14053;DHT22;7101;51.600;7.310;2022-11-15T01:02:34;11.10;45.80
14053;DHT22;7101;51.600;7.310;2022-11-15T01:05:03;11.10;50.80
14053;DHT22;7101;51.600;7.310;2022-11-15T01:07:30;11.10;51.50
14053;DHT22;7101;51.600;7.310;2022-11-15T01:09:58;11.20;49.90
14053;DHT22;7101;51.600;7.310;2022-11-15T01:12:24;11.20;46.90
14053;DHT22;7101;51.600;7.310;2022-11-15T01:14:51;11.20;45.90
14053;DHT22;7101;51.600;7.310;2022-11-15T01:17:21;11.20;50.90
14053;DHT22;7101;51.600;7.310;2022-11-15T01:19:48;11.30;51.30
14053;DHT22;7101;51.600;7.310;2022-11-15T01:22:16;11.30;54.50
14053;DHT22;7101;51.600;7.310;2022-11-15T01:24:43;11.30;58.40
14053;DHT22;7101;51.600;7.310;2022-11-15T01:27:11;11.40;52.60
14053;DHT22;7101;51.600;7.310;2022-11-15T01:29:38;11.40;50.10
14053;DHT22;7101;51.600;7.310;2022-11-15T01:32:05;11.50;52.20
14053;DHT22;7101;51.600;7.310;2022-11-15T01:34:35;11.50;52.50
14053;DHT22;7101;51.600;7.310;2022-11-15T01:37:02;11.60;49.30
14053;DHT22;7101;51.600;7.310;2022-11-15T01:39:30;11.60;49.70
14053;DHT22;7101;51.600;7.310;2022-11-15T01:41:57;11.60;47.40
14053;DHT22;7101;51.600;7.310;2022-11-15T01:44:42;11.60;47.70
14053;DHT22;7101;51.600;7.310;2022-11-15T01:47:14;11.60;49.90
14053;DHT22;7101;51.600;7.310;2022-11-15T01:49:49;11.70;52.10
14053;DHT22;7101;51.600;7.310;2022-11-15T01:52:19;11.70;43.60
14053;DHT22;7101;51.600;7.310;2022-11-15T01:54:52;11.70;43.90
14053;DHT22;7101;51.600;7.310;2022-11-15T01:57:20;11.70;41.90
14053;DHT22;7101;51.600;7.310;2022-11-15T01:59:47;11.80;41.50
14053;DHT22;7101;51.600;7.310;2022-11-15T02:02:14;11.70;36.40
14053;DHT22;7101;51.600;7.310;2022-11-15T02:04:42;11.70;39.00
14053;DHT22;7101;51.600;7.310;2022-11-15T02:07:11;11.70;43.20
14053;DHT22;7101;51.600;7.310;2022-11-15T02:09:39;11.70;41.40
14053;DHT22;7101;51.600;7.310;2022-11-15T02:12:10;11.70;43.60
14053;DHT22;7101;51.600;7.310;2022-11-15T02:14:38;11.70;47.40
14053;DHT22;7101;51.600;7.310;2022-11-15T02:17:16;11.70;51.00
14053;DHT22;7101;51.600;7.310;2022-11-15T02:22:57;11.80;39.90
14053;DHT22;7101;51.600;7.310;2022-11-15T02:25:39;11.70;42.30
14053;DHT22;7101;51.600;7.310;2022-11-15T02:28:34;11.80;45.80
14053;DHT22;7101;51.600;7.310;2022-11-15T02:31:10;11.80;49.30
14053;DHT22;7101;51.600;7.310;2022-11-15T02:33:41;11.80;42.90
14053;DHT22;7101;51.600;7.310;2022-11-15T02:36:17;11.80;45.10
14053;DHT22;7101;51.600;7.310;2022-11-15T02:38:52;11.80;46.70
14053;DHT22;7101;51.600;7.310;2022-11-15T02:41:25;11.80;47.00
14053;DHT22;7101;51.600;7.310;2022-11-15T02:44:01;11.80;50.40
14053;DHT22;7101;51.600;7.310;2022-11-15T02:46:34;11.80;47.50
14053;DHT22;7101;51.600;7.310;2022-11-15T02:49:23;11.90;46.70
14053;DHT22;7101;51.600;7.310;2022-11-15T02:51:52;11.90;45.20
14053;DHT22;7101;51.600;7.310;2022-11-15T02:54:22;11.90;41.60
14053;DHT22;7101;51.600;7.310;2022-11-15T02:56:50;11.90;41.50
14053;DHT22;7101;51.600;7.310;2022-11-15T02:59:38;11.90;44.90
14053;DHT22;7101;51.600;7.310;2022-11-15T03:02:42;11.90;46.40
14053;DHT22;7101;51.600;7.310;2022-11-15T03:05:17;12.00;42.80
14053;DHT22;7101;51.600;7.310;2022-11-15T03:07:52;12.00;42.00
14053;DHT22;7101;51.600;7.310;2022-11-15T03:10:23;12.00;40.10
14053;DHT22;7101;51.600;7.310;2022-11-15T03:12:55;11.90;36.90
14053;DHT22;7101;51.600;7.310;2022-11-15T03:15:28;11.90;44.60
14053;DHT22;7101;51.600;7.310;2022-11-15T03:18:00;11.90;45.80
14053;DHT22;7101;51.600;7.310;2022-11-15T03:20:29;11.80;41.50
14053;DHT22;7101;51.600;7.310;2022-11-15T03:23:05;11.70;57.00
14053;DHT22;7101;51.600;7.310;2022-11-15T03:25:36;11.80;60.90
14053;DHT22;7101;51.600;7.310;2022-11-15T03:28:06;11.70;66.60
14053;DHT22;7101;51.600;7.310;2022-11-15T03:30:40;11.70;75.90
14053;DHT22;7101;51.600;7.310;2022-11-15T03:33:10;11.70;89.30
14053;DHT22;7101;51.600;7.310;2022-11-15T03:35:40;11.70;88.00
14053;DHT22;7101;51.600;7.310;2022-11-15T03:38:15;11.70;88.80
14053;DHT22;7101;51.600;7.310;2022-11-15T03:40:54;11.80;87.60
14053;DHT22;7101;51.600;7.310;2022-11-15T03:43:29;11.80;85.70
14053;DHT22;7101;51.600;7.310;2022-11-15T03:46:01;11.80;87.30
14053;DHT22;7101;51.600;7.310;2022-11-15T03:48:37;11.80;91.80
14053;DHT22;7101;51.600;7.310;2022-11-15T03:51:07;11.80;93.30
14053;DHT22;7101;51.600;7.310;2022-11-15T03:53:36;11.90;90.00
14053;DHT22;7101;51.600;7.310;2022-11-15T03:56:04;11.90;85.80
14053;DHT22;7101;51.600;7.310;2022-11-15T03:58:32;11.90;81.80
14053;DHT22;7101;51.600;7.310;2022-11-15T04:00:59;11.90;82.70
14053;DHT22;7101;51.600;7.310;2022-11-15T04:03:30;11.90;80.70
14053;DHT22;7101;51.600;7.310;2022-11-15T04:05:58;11.90;87.80
14053;DHT22;7101;51.600;7.310;2022-11-15T04:08:26;11.90;87.00
14053;DHT22;7101;51.600;7.310;2022-11-15T04:10:53;11.90;89.00
14053;DHT22;7101;51.600;7.310;2022-11-15T04:13:20;12.00;86.00
14053;DHT22;7101;51.600;7.310;2022-11-15T04:15:50;12.00;84.90
14053;DHT22;7101;51.600;7.310;2022-11-15T04:18:19;12.00;89.60
14053;DHT22;7101;51.600;7.310;2022-11-15T04:20:47;12.00;79.80
14053;DHT22;7101;51.600;7.310;2022-11-15T04:23:33;12.00;79.40
14053;DHT22;7101;51.600;7.310;2022-11-15T04:26:18;12.00;76.90
14053;DHT22;7101;51.600;7.310;2022-11-15T04:28:47;11.90;78.70
14053;DHT22;7101;51.600;7.310;2022-11-15T04:31:28;11.90;90.00
14053;DHT22;7101;51.600;7.310;2022-11-15T04:33:55;11.80;91.30
14053;DHT22;7101;51.600;7.310;2022-11-15T04:36:30;11.90;96.10
14053;DHT22;7101;51.600;7.310;2022-11-15T04:39:15;11.80;99.90
14053;DHT22;7101;51.600;7.310;2022-11-15T04:41:42;11.70;99.90
14053;DHT22;7101;51.600;7.310;2022-11-15T04:44:14;11.80;99.90
14053;DHT22;7101;51.600;7.310;2022-11-15T04:46:42;11.80;99.90
14053;DHT22;7101;51.600;7.310;2022-11-15T04:49:10;11.80;99.90
14053;DHT22;7101;51.600;7.310;2022-11-15T04:51:40;11.90;99.90
14053;DHT22;7101;51.600;7.310;2022-11-15T04:54:11;12.00;99.90
14053;DHT22;7101;51.600;7.310;2022-11-15T04:56:38;12.00;99.90
14053;DHT22;7101;51.600;7.310;2022-11-15T04:59:05;12.00;97.40
14053;DHT22;7101;51.600;7.310;2022-11-15T05:01:32;12.10;92.30
14053;DHT22;7101;51.600;7.310;2022-11-15T05:04:02;12.10;90.10
14053;DHT22;7101;51.600;7.310;2022-11-15T05:06:49;12.10;84.50
14053;DHT22;7101;51.600;7.310;2022-11-15T05:09:16;12.20;81.00
14053;DHT22;7101;51.600;7.310;2022-11-15T05:11:44;12.20;76.90
14053;DHT22;7101;51.600;7.310;2022-11-15T05:14:15;12.20;76.00
14053;DHT22;7101;51.600;7.310;2022-11-15T05:16:44;12.20;71.70
14053;DHT22;7101;51.600;7.310;2022-11-15T05:19:11;12.20;65.50
14053;DHT22;7101;51.600;7.310;2022-11-15T05:21:42;12.30;64.60
14053;DHT22;7101;51.600;7.310;2022-11-15T05:24:12;12.20;61.60
14053;DHT22;7101;51.600;7.310;2022-11-15T05:26:40;12.30;61.80
14053;DHT22;7101;51.600;7.310;2022-11-15T05:29:09;12.30;57.30
14053;DHT22;7101;51.600;7.310;2022-11-15T05:31:39;12.30;60.50
14053;DHT22;7101;51.600;7.310;2022-11-15T05:34:08;12.30;55.80
14053;DHT22;7101;51.600;7.310;2022-11-15T05:36:37;12.30;56.50
14053;DHT22;7101;51.600;7.310;2022-11-15T05:39:09;12.40;53.50
14053;DHT22;7101;51.600;7.310;2022-11-15T05:41:48;12.30;50.70
14053;DHT22;7101;51.600;7.310;2022-11-15T05:44:22;12.30;53.70
14053;DHT22;7101;51.600;7.310;2022-11-15T05:46:53;12.30;55.70
14053;DHT22;7101;51.600;7.310;2022-11-15T05:49:30;12.40;53.10
14053;DHT22;7101;51.600;7.310;2022-11-15T05:51:59;12.40;54.20
14053;DHT22;7101;51.600;7.310;2022-11-15T05:54:26;12.30;54.00
14053;DHT22;7101;51.600;7.310;2022-11-15T05:56:55;12.40;57.40
14053;DHT22;7101;51.600;7.310;2022-11-15T05:59:25;12.40;53.20
14053;DHT22;7101;51.600;7.310;2022-11-15T06:01:54;12.40;49.80
14053;DHT22;7101;51.600;7.310;2022-11-15T06:04:22;12.40;54.50
14053;DHT22;7101;51.600;7.310;2022-11-15T06:06:49;12.40;50.60
14053;DHT22;7101;51.600;7.310;2022-11-15T06:09:18;12.40;48.10
14053;DHT22;7101;51.600;7.310;2022-11-15T06:11:46;12.40;51.30
14053;DHT22;7101;51.600;7.310;2022-11-15T06:14:14;12.40;47.10
14053;DHT22;7101;51.600;7.310;2022-11-15T06:16:43;12.40;50.70
14053;DHT22;7101;51.600;7.310;2022-11-15T06:19:10;12.40;49.70
14053;DHT22;7101;51.600;7.310;2022-11-15T06:21:37;12.40;55.70
14053;DHT22;7101;51.600;7.310;2022-11-15T06:24:07;12.40;48.80
14053;DHT22;7101;51.600;7.310;2022-11-15T06:26:34;12.50;50.30
14053;DHT22;7101;51.600;7.310;2022-11-15T06:29:02;12.50;45.60
14053;DHT22;7101;51.600;7.310;2022-11-15T06:31:31;12.50;50.60
14053;DHT22;7101;51.600;7.310;2022-11-15T06:34:00;12.50;58.50
14053;DHT22;7101;51.600;7.310;2022-11-15T06:36:27;12.40;73.10
14053;DHT22;7101;51.600;7.310;2022-11-15T06:38:56;12.40;96.40
14053;DHT22;7101;51.600;7.310;2022-11-15T06:41:23;12.40;99.90
14053;DHT22;7101;51.600;7.310;2022-11-15T06:43:50;12.40;99.90
14053;DHT22;7101;51.600;7.310;2022-11-15T06:46:18;12.30;99.90
14053;DHT22;7101;51.600;7.310;2022-11-15T06:48:49;12.30;99.90
14053;DHT22;7101;51.600;7.310;2022-11-15T06:51:17;12.30;99.90
14053;DHT22;7101;51.600;7.310;2022-11-15T06:53:44;12.30;99.90
14053;DHT22;7101;51.600;7.310;2022-11-15T06:56:11;12.30;99.90
14053;DHT22;7101;51.600;7.310;2022-11-15T06:58:38;12.30;99.90
14053;DHT22;7101;51.600;7.310;2022-11-15T07:01:07;12.30;99.90
14053;DHT22;7101;51.600;7.310;2022-11-15T07:03:38;12.30;99.90
14053;DHT22;7101;51.600;7.310;2022-11-15T07:06:07;12.30;99.90
14053;DHT22;7101;51.600;7.310;2022-11-15T07:08:35;12.30;99.90
14053;DHT22;7101;51.600;7.310;2022-11-15T07:11:08;12.30;99.90
14053;DHT22;7101;51.600;7.310;2022-11-15T07:13:35;12.40;99.90
14053;DHT22;7101;51.600;7.310;2022-11-15T07:16:04;12.30;99.90
14053;DHT22;7101;51.600;7.310;2022-11-15T07:18:33;12.30;99.20
14053;DHT22;7101;51.600;7.310;2022-11-15T07:21:02;12.40;95.50
14053;DHT22;7101;51.600;7.310;2022-11-15T07:23:30;12.40;87.20
14053;DHT22;7101;51.600;7.310;2022-11-15T07:25:58;12.50;75.80
14053;DHT22;7101;51.600;7.310;2022-11-15T07:28:25;12.60;67.60
14053;DHT22;7101;51.600;7.310;2022-11-15T07:30:52;12.50;59.50
14053;DHT22;7101;51.600;7.310;2022-11-15T07:33:34;12.60;49.90
14053;DHT22;7101;51.600;7.310;2022-11-15T07:36:02;12.60;45.90
14053;DHT22;7101;51.600;7.310;2022-11-15T07:38:30;12.60;35.30
14053;DHT22;7101;51.600;7.310;2022-11-15T07:40:58;12.60;26.60
14053;DHT22;7101;51.600;7.310;2022-11-15T07:43:27;12.60;15.20
14053;DHT22;7101;51.600;7.310;2022-11-15T07:45:55;12.70;10.60
14053;DHT22;7101;51.600;7.310;2022-11-15T07:48:23;12.70;4.80
14053;DHT22;7101;51.600;7.310;2022-11-15T07:50:49;12.80;1.00
14053;DHT22;7101;51.600;7.310;2022-11-15T07:53:18;12.70;1.00
14053;DHT22;7101;51.600;7.310;2022-11-15T07:55:47;12.70;1.00
14053;DHT22;7101;51.600;7.310;2022-11-15T07:58:14;12.70;1.00
14053;DHT22;7101;51.600;7.310;2022-11-15T08:00:41;12.60;1.00
14053;DHT22;7101;51.600;7.310;2022-11-15T08:03:10;12.60;1.00
14053;DHT22;7101;51.600;7.310;2022-11-15T08:05:38;12.70;1.00
14053;DHT22;7101;51.600;7.310;2022-11-15T08:08:07;12.70;1.00
14053;DHT22;7101;51.600;7.310;2022-11-15T08:10:34;12.70;1.00
14053;DHT22;7101;51.600;7.310;2022-11-15T08:13:04;12.70;1.00
14053;DHT22;7101;51.600;7.310;2022-11-15T08:15:32;12.70;1.00
14053;DHT22;7101;51.600;7.310;2022-11-15T08:18:01;12.70;1.00
14053;DHT22;7101;51.600;7.310;2022-11-15T08:20:29;12.70;1.00
14053;DHT22;7101;51.600;7.310;2022-11-15T08:22:57;12.70;1.00
14053;DHT22;7101;51.600;7.310;2022-11-15T08:25:24;12.70;1.00
14053;DHT22;7101;51.600;7.310;2022-11-15T08:27:53;12.80;1.00
14053;DHT22;7101;51.600;7.310;2022-11-15T08:30:22;12.80;1.00
14053;DHT22;7101;51.600;7.310;2022-11-15T08:32:50;12.80;1.00
14053;DHT22;7101;51.600;7.310;2022-11-15T08:35:18;12.80;1.00
14053;DHT22;7101;51.600;7.310;2022-11-15T08:37:46;12.80;1.00
14053;DHT22;7101;51.600;7.310;2022-11-15T08:40:13;12.80;1.00
14053;DHT22;7101;51.600;7.310;2022-11-15T08:42:41;12.80;1.00
14053;DHT22;7101;51.600;7.310;2022-11-15T08:45:10;12.90;1.00
14053;DHT22;7101;51.600;7.310;2022-11-15T08:47:39;13.00;1.00
14053;DHT22;7101;51.600;7.310;2022-11-15T08:50:07;13.00;1.00
14053;DHT22;7101;51.600;7.310;2022-11-15T08:52:34;13.00;1.00
14053;DHT22;7101;51.600;7.310;2022-11-15T08:55:01;13.10;1.00
14053;DHT22;7101;51.600;7.310;2022-11-15T08:57:29;13.10;1.00
14053;DHT22;7101;51.600;7.310;2022-11-15T08:59:56;13.20;1.00
14053;DHT22;7101;51.600;7.310;2022-11-15T09:02:23;13.20;1.00
14053;DHT22;7101;51.600;7.310;2022-11-15T09:04:51;13.30;1.00
14053;DHT22;7101;51.600;7.310;2022-11-15T09:07:18;13.30;1.00
14053;DHT22;7101;51.600;7.310;2022-11-15T09:09:46;13.40;1.00
14053;DHT22;7101;51.600;7.310;2022-11-15T09:12:13;13.40;1.00
14053;DHT22;7101;51.600;7.310;2022-11-15T09:14:41;13.30;1.00
14053;DHT22;7101;51.600;7.310;2022-11-15T09:17:09;13.30;1.00
14053;DHT22;7101;51.600;7.310;2022-11-15T09:19:36;13.40;1.00
14053;DHT22;7101;51.600;7.310;2022-11-15T09:22:09;13.40;1.00
14053;DHT22;7101;51.600;7.310;2022-11-15T09:24:37;13.40;1.00
14053;DHT22;7101;51.600;7.310;2022-11-15T09:27:04;13.40;1.00
14053;DHT22;7101;51.600;7.310;2022-11-15T09:29:32;13.30;1.00
14053;DHT22;7101;51.600;7.310;2022-11-15T09:32:00;13.40;1.00
14053;DHT22;7101;51.600;7.310;2022-11-15T09:34:27;13.50;1.00
14053;DHT22;7101;51.600;7.310;2022-11-15T09:36:54;13.40;1.00
14053;DHT22;7101;51.600;7.310;2022-11-15T09:39:23;13.40;1.00
14053;DHT22;7101;51.600;7.310;2022-11-15T09:42:08;13.40;1.00
14053;DHT22;7101;51.600;7.310;2022-11-15T09:44:42;13.40;1.00
14053;DHT22;7101;51.600;7.310;2022-11-15T09:47:43;13.40;1.00
14053;DHT22;7101;51.600;7.310;2022-11-15T09:50:15;13.50;1.00
14053;DHT22;7101;51.600;7.310;2022-11-15T09:52:45;13.60;1.00
14053;DHT22;7101;51.600;7.310;2022-11-15T09:55:14;13.60;1.00
14053;DHT22;7101;51.600;7.310;2022-11-15T09:57:52;13.60;1.00
14053;DHT22;7101;51.600;7.310;2022-11-15T10:00:24;13.60;1.00
14053;DHT22;7101;51.600;7.310;2022-11-15T10:03:09;13.60;1.00
14053;DHT22;7101;51.600;7.310;2022-11-15T10:05:38;13.70;1.00
14053;DHT22;7101;51.600;7.310;2022-11-15T10:08:22;13.70;1.00
14053;DHT22;7101;51.600;7.310;2022-11-15T10:10:56;13.70;1.00
14053;DHT22;7101;51.600;7.310;2022-11-15T10:13:25;13.80;1.00
14053;DHT22;7101;51.600;7.310;2022-11-15T10:15:54;13.70;1.00
14053;DHT22;7101;51.600;7.310;2022-11-15T10:18:29;13.80;1.00
14053;DHT22;7101;51.600;7.310;2022-11-15T10:21:12;13.90;1.00
14053;DHT22;7101;51.600;7.310;2022-11-15T10:23:40;13.90;1.00
14053;DHT22;7101;51.600;7.310;2022-11-15T10:26:12;13.80;1.00
14053;DHT22;7101;51.600;7.310;2022-11-15T10:28:40;13.70;1.00
14053;DHT22;7101;51.600;7.310;2022-11-15T10:31:22;13.80;1.00
14053;DHT22;7101;51.600;7.310;2022-11-15T10:33:51;13.70;1.00
14053;DHT22;7101;51.600;7.310;2022-11-15T10:36:22;13.80;1.00
14053;DHT22;7101;51.600;7.310;2022-11-15T10:38:57;13.90;1.00
14053;DHT22;7101;51.600;7.310;2022-11-15T10:41:36;13.80;1.00
14053;DHT22;7101;51.600;7.310;2022-11-15T10:44:11;13.80;1.00
14053;DHT22;7101;51.600;7.310;2022-11-15T10:46:40;13.80;1.00
14053;DHT22;7101;51.600;7.310;2022-11-15T10:49:13;13.80;1.00
14053;DHT22;7101;51.600;7.310;2022-11-15T10:51:44;13.70;1.00
14053;DHT22;7101;51.600;7.310;2022-11-15T10:54:16;13.70;1.00
14053;DHT22;7101;51.600;7.310;2022-11-15T10:56:50;13.70;1.00
14053;DHT22;7101;51.600;7.310;2022-11-15T10:59:24;13.50;1.00
14053;DHT22;7101;51.600;7.310;2022-11-15T11:01:52;13.50;1.00
14053;DHT22;7101;51.600;7.310;2022-11-15T11:04:19;13.50;1.00
14053;DHT22;7101;51.600;7.310;2022-11-15T11:06:51;13.50;1.00
14053;DHT22;7101;51.600;7.310;2022-11-15T11:09:33;13.50;1.00
14053;DHT22;7101;51.600;7.310;2022-11-15T11:12:04;13.50;1.00
14053;DHT22;7101;51.600;7.310;2022-11-15T11:14:33;13.70;1.00
14053;DHT22;7101;51.600;7.310;2022-11-15T11:17:05;13.60;1.00
14053;DHT22;7101;51.600;7.310;2022-11-15T11:19:48;13.70;1.00
14053;DHT22;7101;51.600;7.310;2022-11-15T11:22:22;13.80;1.00
14053;DHT22;7101;51.600;7.310;2022-11-15T11:24:59;13.80;1.00
14053;DHT22;7101;51.600;7.310;2022-11-15T11:27:40;13.70;99.90
14053;DHT22;7101;51.600;7.310;2022-11-15T11:30:11;13.70;99.90
14053;DHT22;7101;51.600;7.310;2022-11-15T11:32:55;13.80;99.90
14053;DHT22;7101;51.600;7.310;2022-11-15T11:35:29;13.80;99.90
14053;DHT22;7101;51.600;7.310;2022-11-15T11:38:08;13.80;99.90
14053;DHT22;7101;51.600;7.310;2022-11-15T11:40:53;13.80;99.90
14053;DHT22;7101;51.600;7.310;2022-11-15T11:43:28;13.90;99.90
14053;DHT22;7101;51.600;7.310;2022-11-15T11:46:09;14.00;99.90
14053;DHT22;7101;51.600;7.310;2022-11-15T11:48:44;14.00;99.90
14053;DHT22;7101;51.600;7.310;2022-11-15T11:51:18;13.90;14.20
14053;DHT22;7101;51.600;7.310;2022-11-15T11:53:49;13.90;1.00
14053;DHT22;7101;51.600;7.310;2022-11-15T11:56:23;13.80;1.00
14053;DHT22;7101;51.600;7.310;2022-11-15T11:58:54;13.80;1.00
14053;DHT22;7101;51.600;7.310;2022-11-15T12:01:24;13.90;1.00
14053;DHT22;7101;51.600;7.310;2022-11-15T12:03:55;13.90;1.00
14053;DHT22;7101;51.600;7.310;2022-11-15T12:06:41;13.90;1.00
14053;DHT22;7101;51.600;7.310;2022-11-15T12:09:13;14.00;99.90
14053;DHT22;7101;51.600;7.310;2022-11-15T12:11:50;14.00;1.00
14053;DHT22;7101;51.600;7.310;2022-11-15T12:14:31;13.90;99.90
14053;DHT22;7101;51.600;7.310;2022-11-15T12:16:59;14.00;1.00
14053;DHT22;7101;51.600;7.310;2022-11-15T12:19:26;14.00;99.90
14053;DHT22;7101;51.600;7.310;2022-11-15T12:21:59;14.00;99.90
14053;DHT22;7101;51.600;7.310;2022-11-15T12:24:32;14.00;99.90
14053;DHT22;7101;51.600;7.310;2022-11-15T12:27:03;14.00;1.00
14053;DHT22;7101;51.600;7.310;2022-11-15T12:29:38;14.00;1.00
14053;DHT22;7101;51.600;7.310;2022-11-15T12:32:17;14.00;1.00
14053;DHT22;7101;51.600;7.310;2022-11-15T12:34:47;14.00;99.90
14053;DHT22;7101;51.600;7.310;2022-11-15T12:37:34;14.00;1.00
14053;DHT22;7101;51.600;7.310;2022-11-15T12:40:27;14.00;1.00
14053;DHT22;7101;51.600;7.310;2022-11-15T12:43:05;14.00;1.00
14053;DHT22;7101;51.600;7.310;2022-11-15T12:45:40;14.00;1.00
14053;DHT22;7101;51.600;7.310;2022-11-15T12:51:16;14.10;1.00
14053;DHT22;7101;51.600;7.310;2022-11-15T12:53:43;14.10;1.00
14053;DHT22;7101;51.600;7.310;2022-11-15T12:56:21;14.10;1.00
14053;DHT22;7101;51.600;7.310;2022-11-15T12:58:52;14.10;1.00
14053;DHT22;7101;51.600;7.310;2022-11-15T13:04:30;14.20;99.90
14053;DHT22;7101;51.600;7.310;2022-11-15T13:07:00;14.10;99.90
14053;DHT22;7101;51.600;7.310;2022-11-15T13:09:51;14.10;99.90
14053;DHT22;7101;51.600;7.310;2022-11-15T13:12:51;14.00;99.90
14053;DHT22;7101;51.600;7.310;2022-11-15T13:15:37;14.00;99.90
14053;DHT22;7101;51.600;7.310;2022-11-15T13:18:29;14.00;99.90
14053;DHT22;7101;51.600;7.310;2022-11-15T13:21:01;13.90;1.00
14053;DHT22;7101;51.600;7.310;2022-11-15T13:23:53;13.90;99.90
14053;DHT22;7101;51.600;7.310;2022-11-15T13:26:21;13.90;1.00
14053;DHT22;7101;51.600;7.310;2022-11-15T13:28:49;13.90;1.00
14053;DHT22;7101;51.600;7.310;2022-11-15T13:31:40;13.90;1.00
14053;DHT22;7101;51.600;7.310;2022-11-15T13:34:35;13.80;21.20
14053;DHT22;7101;51.600;7.310;2022-11-15T13:37:10;13.90;1.00
14053;DHT22;7101;51.600;7.310;2022-11-15T13:39:39;13.80;99.90
14053;DHT22;7101;51.600;7.310;2022-11-15T13:42:14;13.80;1.00
14053;DHT22;7101;51.600;7.310;2022-11-15T13:44:55;13.70;1.00
14053;DHT22;7101;51.600;7.310;2022-11-15T13:47:25;13.70;1.00
14053;DHT22;7101;51.600;7.310;2022-11-15T13:49:56;13.70;99.90
14053;DHT22;7101;51.600;7.310;2022-11-15T13:52:30;13.60;1.00
14053;DHT22;7101;51.600;7.310;2022-11-15T13:55:00;13.50;1.00
14053;DHT22;7101;51.600;7.310;2022-11-15T13:57:32;13.50;1.00
14053;DHT22;7101;51.600;7.310;2022-11-15T14:00:22;13.40;1.00
14053;DHT22;7101;51.600;7.310;2022-11-15T14:02:54;13.40;1.00
14053;DHT22;7101;51.600;7.310;2022-11-15T14:05:23;13.50;28.90
14053;DHT22;7101;51.600;7.310;2022-11-15T14:08:11;13.60;1.00
14053;DHT22;7101;51.600;7.310;2022-11-15T14:10:40;13.60;1.00
14053;DHT22;7101;51.600;7.310;2022-11-15T14:13:26;13.70;99.90
14053;DHT22;7101;51.600;7.310;2022-11-15T14:15:54;13.70;1.00
14053;DHT22;7101;51.600;7.310;2022-11-15T14:18:40;13.70;1.00
14053;DHT22;7101;51.600;7.310;2022-11-15T14:21:08;13.70;99.90
14053;DHT22;7101;51.600;7.310;2022-11-15T14:23:38;13.70;37.10
14053;DHT22;7101;51.600;7.310;2022-11-15T14:26:26;13.70;99.90
14053;DHT22;7101;51.600;7.310;2022-11-15T14:28:54;13.70;99.90
14053;DHT22;7101;51.600;7.310;2022-11-15T14:31:21;13.70;1.00
14053;DHT22;7101;51.600;7.310;2022-11-15T14:33:48;13.80;1.00
14053;DHT22;7101;51.600;7.310;2022-11-15T14:36:18;13.80;99.90
14053;DHT22;7101;51.600;7.310;2022-11-15T14:38:46;13.70;1.00
14053;DHT22;7101;51.600;7.310;2022-11-15T14:41:19;13.70;1.00
14053;DHT22;7101;51.600;7.310;2022-11-15T14:43:48;13.70;1.00
14053;DHT22;7101;51.600;7.310;2022-11-15T14:46:16;13.70;1.00
14053;DHT22;7101;51.600;7.310;2022-11-15T14:48:45;13.70;1.00
14053;DHT22;7101;51.600;7.310;2022-11-15T14:51:14;13.70;1.00
14053;DHT22;7101;51.600;7.310;2022-11-15T14:53:42;13.70;44.30
14053;DHT22;7101;51.600;7.310;2022-11-15T14:56:11;13.70;99.90
14053;DHT22;7101;51.600;7.310;2022-11-15T14:58:38;13.60;99.90
14053;DHT22;7101;51.600;7.310;2022-11-15T15:01:12;13.60;99.90
14053;DHT22;7101;51.600;7.310;2022-11-15T15:03:39;13.60;99.90
14053;DHT22;7101;51.600;7.310;2022-11-15T15:06:06;13.50;99.90
14053;DHT22;7101;51.600;7.310;2022-11-15T15:08:34;13.50;99.90
14053;DHT22;7101;51.600;7.310;2022-11-15T15:11:01;13.50;99.90
14053;DHT22;7101;51.600;7.310;2022-11-15T15:13:37;13.50;99.90
14053;DHT22;7101;51.600;7.310;2022-11-15T15:16:05;13.60;99.90
14053;DHT22;7101;51.600;7.310;2022-11-15T15:18:33;13.50;99.90
14053;DHT22;7101;51.600;7.310;2022-11-15T15:21:04;13.50;99.90
14053;DHT22;7101;51.600;7.310;2022-11-15T15:23:40;13.50;99.90
14053;DHT22;7101;51.600;7.310;2022-11-15T15:26:07;13.50;99.90
14053;DHT22;7101;51.600;7.310;2022-11-15T15:28:36;13.50;1.00
14053;DHT22;7101;51.600;7.310;2022-11-15T15:31:04;13.50;1.00
14053;DHT22;7101;51.600;7.310;2022-11-15T15:33:33;13.50;99.90
14053;DHT22;7101;51.600;7.310;2022-11-15T15:35:59;13.50;1.00
14053;DHT22;7101;51.600;7.310;2022-11-15T15:38:29;13.50;99.90
14053;DHT22;7101;51.600;7.310;2022-11-15T15:40:56;13.40;1.00
14053;DHT22;7101;51.600;7.310;2022-11-15T15:43:25;13.40;99.90
14053;DHT22;7101;51.600;7.310;2022-11-15T15:45:53;13.40;1.00
14053;DHT22;7101;51.600;7.310;2022-11-15T15:48:21;13.30;1.00
14053;DHT22;7101;51.600;7.310;2022-11-15T15:50:48;13.30;1.00
14053;DHT22;7101;51.600;7.310;2022-11-15T15:53:15;13.20;1.00
14053;DHT22;7101;51.600;7.310;2022-11-15T15:55:42;13.20;1.00
14053;DHT22;7101;51.600;7.310;2022-11-15T15:58:09;13.20;1.00
14053;DHT22;7101;51.600;7.310;2022-11-15T16:00:36;13.20;1.00
14053;DHT22;7101;51.600;7.310;2022-11-15T16:03:05;13.10;1.00
14053;DHT22;7101;51.600;7.310;2022-11-15T16:05:32;13.20;1.00
14053;DHT22;7101;51.600;7.310;2022-11-15T16:07:59;13.20;1.00
14053;DHT22;7101;51.600;7.310;2022-11-15T16:10:27;13.20;1.00
14053;DHT22;7101;51.600;7.310;2022-11-15T16:12:56;13.20;1.00
14053;DHT22;7101;51.600;7.310;2022-11-15T16:15:25;13.10;1.00
14053;DHT22;7101;51.600;7.310;2022-11-15T16:17:54;13.20;1.00
14053;DHT22;7101;51.600;7.310;2022-11-15T16:20:34;13.20;1.00
14053;DHT22;7101;51.600;7.310;2022-11-15T16:23:02;13.30;1.00
14053;DHT22;7101;51.600;7.310;2022-11-15T16:25:31;13.30;1.00
14053;DHT22;7101;51.600;7.310;2022-11-15T16:27:58;13.30;1.00